Terminal Aerodrome Forecast
Issued by NWS

Home | Current Version | Previous Version | Text Only | Print | Product List | Glossary On
Versions: 1 2 3 4 5 6 7 8 9 10 11 12 13 14 15 16 17 18 19 20 21 22
000
FTUS45 KTFX 011720
TAFLWT
TAF
KLWT 011720Z 0118/0218 29008KT P6SM BKN250
     FM020000 12007KT P6SM BKN250
     FM020700 12007KT P6SM SKC
     FM021500 VRB06KT P6SM BKN250=

USA.gov is the U.S. government's official web portal to all federal, state and local government web resources and services.